sensor_id;sensor_type;location;lat;lon;timestamp;P1;durP1;ratioP1;P2;durP2;ratioP2
2944;SDS011;1482;51.398;7.128;2022-09-01T00:00:43;4.27;;;2.50;;
2944;SDS011;1482;51.398;7.128;2022-09-01T00:03:16;4.07;;;2.60;;
2944;SDS011;1482;51.398;7.128;2022-09-01T00:05:43;2.43;;;1.90;;
2944;SDS011;1482;51.398;7.128;2022-09-01T00:08:10;6.13;;;2.20;;
2944;SDS011;1482;51.398;7.128;2022-09-01T00:10:37;4.00;;;2.20;;
2944;SDS011;1482;51.398;7.128;2022-09-01T00:13:03;5.07;;;2.20;;
2944;SDS011;1482;51.398;7.128;2022-09-01T00:15:31;2.87;;;1.90;;
2944;SDS011;1482;51.398;7.128;2022-09-01T00:17:58;3.97;;;2.00;;
2944;SDS011;1482;51.398;7.128;2022-09-01T00:20:23;3.33;;;2.43;;
2944;SDS011;1482;51.398;7.128;2022-09-01T00:22:49;5.07;;;2.30;;
2944;SDS011;1482;51.398;7.128;2022-09-01T00:25:15;5.60;;;3.00;;
2944;SDS011;1482;51.398;7.128;2022-09-01T00:27:44;3.40;;;2.07;;
2944;SDS011;1482;51.398;7.128;2022-09-01T00:30:10;7.47;;;2.63;;
2944;SDS011;1482;51.398;7.128;2022-09-01T00:32:36;5.77;;;2.33;;
2944;SDS011;1482;51.398;7.128;2022-09-01T00:35:02;7.80;;;2.13;;
2944;SDS011;1482;51.398;7.128;2022-09-01T00:37:29;3.90;;;2.07;;
2944;SDS011;1482;51.398;7.128;2022-09-01T00:39:55;3.23;;;2.30;;
2944;SDS011;1482;51.398;7.128;2022-09-01T00:42:20;2.63;;;2.27;;
2944;SDS011;1482;51.398;7.128;2022-09-01T00:44:46;6.43;;;2.40;;
2944;SDS011;1482;51.398;7.128;2022-09-01T00:47:12;3.03;;;2.73;;
2944;SDS011;1482;51.398;7.128;2022-09-01T00:49:40;4.17;;;2.10;;
2944;SDS011;1482;51.398;7.128;2022-09-01T00:52:10;4.60;;;2.53;;
2944;SDS011;1482;51.398;7.128;2022-09-01T00:54:46;4.10;;;2.30;;
2944;SDS011;1482;51.398;7.128;2022-09-01T00:57:14;4.70;;;2.27;;
2944;SDS011;1482;51.398;7.128;2022-09-01T00:59:49;4.23;;;2.80;;
2944;SDS011;1482;51.398;7.128;2022-09-01T01:02:27;4.30;;;2.83;;
2944;SDS011;1482;51.398;7.128;2022-09-01T01:04:53;6.93;;;2.73;;
2944;SDS011;1482;51.398;7.128;2022-09-01T01:07:23;5.57;;;2.70;;
2944;SDS011;1482;51.398;7.128;2022-09-01T01:09:51;2.67;;;2.43;;
2944;SDS011;1482;51.398;7.128;2022-09-01T01:12:17;6.10;;;2.93;;
2944;SDS011;1482;51.398;7.128;2022-09-01T01:14:44;2.50;;;2.27;;
2944;SDS011;1482;51.398;7.128;2022-09-01T01:17:14;4.90;;;2.90;;
2944;SDS011;1482;51.398;7.128;2022-09-01T01:25:11;6.47;;;3.03;;
2944;SDS011;1482;51.398;7.128;2022-09-01T01:27:37;4.70;;;3.53;;
2944;SDS011;1482;51.398;7.128;2022-09-01T01:30:06;3.30;;;2.60;;
2944;SDS011;1482;51.398;7.128;2022-09-01T01:32:35;3.20;;;2.20;;
2944;SDS011;1482;51.398;7.128;2022-09-01T01:35:01;6.77;;;3.87;;
2944;SDS011;1482;51.398;7.128;2022-09-01T01:37:30;2.70;;;2.13;;
2944;SDS011;1482;51.398;7.128;2022-09-01T01:39:59;3.40;;;2.17;;
2944;SDS011;1482;51.398;7.128;2022-09-01T01:42:25;2.27;;;1.93;;
2944;SDS011;1482;51.398;7.128;2022-09-01T01:44:52;3.37;;;2.00;;
2944;SDS011;1482;51.398;7.128;2022-09-01T01:47:18;2.43;;;2.23;;
2944;SDS011;1482;51.398;7.128;2022-09-01T01:49:45;2.40;;;2.10;;
2944;SDS011;1482;51.398;7.128;2022-09-01T01:52:11;3.90;;;2.77;;
2944;SDS011;1482;51.398;7.128;2022-09-01T01:54:42;2.73;;;2.47;;
2944;SDS011;1482;51.398;7.128;2022-09-01T01:57:10;2.40;;;2.13;;
2944;SDS011;1482;51.398;7.128;2022-09-01T01:59:39;4.13;;;2.53;;
2944;SDS011;1482;51.398;7.128;2022-09-01T02:02:04;4.43;;;2.37;;
2944;SDS011;1482;51.398;7.128;2022-09-01T02:04:33;3.80;;;2.53;;
2944;SDS011;1482;51.398;7.128;2022-09-01T02:06:59;3.93;;;2.63;;
2944;SDS011;1482;51.398;7.128;2022-09-01T02:09:25;7.50;;;2.70;;
2944;SDS011;1482;51.398;7.128;2022-09-01T02:11:50;5.93;;;2.97;;
2944;SDS011;1482;51.398;7.128;2022-09-01T02:14:21;5.50;;;2.77;;
2944;SDS011;1482;51.398;7.128;2022-09-01T02:16:47;3.47;;;2.17;;
2944;SDS011;1482;51.398;7.128;2022-09-01T02:19:13;5.47;;;2.33;;
2944;SDS011;1482;51.398;7.128;2022-09-01T02:21:43;3.10;;;2.80;;
2944;SDS011;1482;51.398;7.128;2022-09-01T02:24:13;3.53;;;2.13;;
2944;SDS011;1482;51.398;7.128;2022-09-01T02:26:42;5.20;;;2.70;;
2944;SDS011;1482;51.398;7.128;2022-09-01T02:29:13;4.67;;;2.23;;
2944;SDS011;1482;51.398;7.128;2022-09-01T02:31:46;2.83;;;2.07;;
2944;SDS011;1482;51.398;7.128;2022-09-01T02:34:14;3.37;;;2.53;;
2944;SDS011;1482;51.398;7.128;2022-09-01T02:36:43;7.23;;;2.80;;
2944;SDS011;1482;51.398;7.128;2022-09-01T02:39:17;4.60;;;2.80;;
2944;SDS011;1482;51.398;7.128;2022-09-01T02:41:47;2.87;;;2.53;;
2944;SDS011;1482;51.398;7.128;2022-09-01T02:44:13;3.17;;;2.77;;
2944;SDS011;1482;51.398;7.128;2022-09-01T02:46:42;3.73;;;2.90;;
2944;SDS011;1482;51.398;7.128;2022-09-01T02:49:16;4.20;;;3.20;;
2944;SDS011;1482;51.398;7.128;2022-09-01T02:51:46;4.13;;;2.87;;
2944;SDS011;1482;51.398;7.128;2022-09-01T02:54:14;10.20;;;4.17;;
2944;SDS011;1482;51.398;7.128;2022-09-01T02:56:43;3.33;;;2.50;;
2944;SDS011;1482;51.398;7.128;2022-09-01T02:59:11;5.03;;;3.10;;
2944;SDS011;1482;51.398;7.128;2022-09-01T03:01:42;3.27;;;2.87;;
2944;SDS011;1482;51.398;7.128;2022-09-01T03:04:12;3.83;;;2.53;;
2944;SDS011;1482;51.398;7.128;2022-09-01T03:06:38;5.10;;;3.40;;
2944;SDS011;1482;51.398;7.128;2022-09-01T03:09:06;6.80;;;3.33;;
2944;SDS011;1482;51.398;7.128;2022-09-01T03:11:35;4.63;;;2.67;;
2944;SDS011;1482;51.398;7.128;2022-09-01T03:14:02;20.90;;;3.57;;
2944;SDS011;1482;51.398;7.128;2022-09-01T03:16:29;3.80;;;3.30;;
2944;SDS011;1482;51.398;7.128;2022-09-01T03:18:54;3.70;;;2.33;;
2944;SDS011;1482;51.398;7.128;2022-09-01T03:21:20;3.27;;;2.63;;
2944;SDS011;1482;51.398;7.128;2022-09-01T03:23:48;6.73;;;2.90;;
2944;SDS011;1482;51.398;7.128;2022-09-01T03:26:15;3.07;;;2.40;;
2944;SDS011;1482;51.398;7.128;2022-09-01T03:28:43;3.63;;;3.10;;
2944;SDS011;1482;51.398;7.128;2022-09-01T03:31:10;3.60;;;2.80;;
2944;SDS011;1482;51.398;7.128;2022-09-01T03:33:36;7.73;;;3.30;;
2944;SDS011;1482;51.398;7.128;2022-09-01T03:36:02;3.40;;;2.87;;
2944;SDS011;1482;51.398;7.128;2022-09-01T03:38:29;6.10;;;2.70;;
2944;SDS011;1482;51.398;7.128;2022-09-01T03:41:03;7.33;;;2.80;;
2944;SDS011;1482;51.398;7.128;2022-09-01T03:43:30;3.60;;;3.10;;
2944;SDS011;1482;51.398;7.128;2022-09-01T03:45:57;2.90;;;2.70;;
2944;SDS011;1482;51.398;7.128;2022-09-01T03:48:29;2.80;;;2.60;;
2944;SDS011;1482;51.398;7.128;2022-09-01T03:50:56;3.67;;;2.73;;
2944;SDS011;1482;51.398;7.128;2022-09-01T03:53:26;6.13;;;3.30;;
2944;SDS011;1482;51.398;7.128;2022-09-01T03:55:53;2.87;;;2.63;;
2944;SDS011;1482;51.398;7.128;2022-09-01T03:58:19;7.90;;;2.40;;
2944;SDS011;1482;51.398;7.128;2022-09-01T04:00:48;4.70;;;2.83;;
2944;SDS011;1482;51.398;7.128;2022-09-01T04:03:19;4.13;;;3.00;;
2944;SDS011;1482;51.398;7.128;2022-09-01T04:05:46;10.37;;;3.77;;
2944;SDS011;1482;51.398;7.128;2022-09-01T04:08:15;4.10;;;3.17;;
2944;SDS011;1482;51.398;7.128;2022-09-01T04:10:43;8.30;;;3.73;;
2944;SDS011;1482;51.398;7.128;2022-09-01T04:13:14;2.63;;;2.43;;
2944;SDS011;1482;51.398;7.128;2022-09-01T04:15:41;3.53;;;2.90;;
2944;SDS011;1482;51.398;7.128;2022-09-01T04:18:07;3.40;;;3.00;;
2944;SDS011;1482;51.398;7.128;2022-09-01T04:20:43;5.07;;;3.37;;
2944;SDS011;1482;51.398;7.128;2022-09-01T04:25:55;5.37;;;2.80;;
2944;SDS011;1482;51.398;7.128;2022-09-01T04:28:24;4.03;;;3.63;;
2944;SDS011;1482;51.398;7.128;2022-09-01T04:30:56;4.00;;;2.93;;
2944;SDS011;1482;51.398;7.128;2022-09-01T04:33:26;4.23;;;3.13;;
2944;SDS011;1482;51.398;7.128;2022-09-01T04:36:01;4.00;;;2.87;;
2944;SDS011;1482;51.398;7.128;2022-09-01T04:38:27;3.30;;;3.00;;
2944;SDS011;1482;51.398;7.128;2022-09-01T04:40:53;2.90;;;2.63;;
2944;SDS011;1482;51.398;7.128;2022-09-01T04:43:21;6.27;;;3.50;;
2944;SDS011;1482;51.398;7.128;2022-09-01T04:45:47;4.20;;;3.43;;
2944;SDS011;1482;51.398;7.128;2022-09-01T04:48:16;4.10;;;3.03;;
2944;SDS011;1482;51.398;7.128;2022-09-01T04:50:46;4.53;;;2.93;;
2944;SDS011;1482;51.398;7.128;2022-09-01T04:53:13;3.03;;;2.73;;
2944;SDS011;1482;51.398;7.128;2022-09-01T04:55:40;4.10;;;3.00;;
2944;SDS011;1482;51.398;7.128;2022-09-01T04:58:09;3.80;;;2.70;;
2944;SDS011;1482;51.398;7.128;2022-09-01T05:00:37;6.13;;;3.40;;
2944;SDS011;1482;51.398;7.128;2022-09-01T05:03:04;6.83;;;3.23;;
2944;SDS011;1482;51.398;7.128;2022-09-01T05:08:06;4.73;;;3.60;;
2944;SDS011;1482;51.398;7.128;2022-09-01T05:10:38;6.20;;;2.73;;
2944;SDS011;1482;51.398;7.128;2022-09-01T05:13:09;8.37;;;3.27;;
2944;SDS011;1482;51.398;7.128;2022-09-01T05:15:40;7.53;;;2.97;;
2944;SDS011;1482;51.398;7.128;2022-09-01T05:18:14;7.53;;;3.40;;
2944;SDS011;1482;51.398;7.128;2022-09-01T05:20:48;4.70;;;2.97;;
2944;SDS011;1482;51.398;7.128;2022-09-01T05:23:15;4.73;;;3.70;;
2944;SDS011;1482;51.398;7.128;2022-09-01T05:25:44;5.10;;;2.77;;
2944;SDS011;1482;51.398;7.128;2022-09-01T05:28:13;8.23;;;3.50;;
2944;SDS011;1482;51.398;7.128;2022-09-01T05:30:41;5.60;;;3.20;;
2944;SDS011;1482;51.398;7.128;2022-09-01T05:33:08;4.70;;;3.93;;
2944;SDS011;1482;51.398;7.128;2022-09-01T05:35:38;4.37;;;3.40;;
2944;SDS011;1482;51.398;7.128;2022-09-01T05:38:07;6.40;;;3.10;;
2944;SDS011;1482;51.398;7.128;2022-09-01T05:40:37;5.90;;;3.80;;
2944;SDS011;1482;51.398;7.128;2022-09-01T05:43:08;3.07;;;2.83;;
2944;SDS011;1482;51.398;7.128;2022-09-01T05:45:36;6.80;;;3.10;;
2944;SDS011;1482;51.398;7.128;2022-09-01T05:48:04;4.20;;;2.70;;
2944;SDS011;1482;51.398;7.128;2022-09-01T05:50:30;2.70;;;2.43;;
2944;SDS011;1482;51.398;7.128;2022-09-01T05:52:55;2.93;;;2.73;;
2944;SDS011;1482;51.398;7.128;2022-09-01T05:55:21;4.23;;;2.80;;
2944;SDS011;1482;51.398;7.128;2022-09-01T05:57:46;4.33;;;2.80;;
2944;SDS011;1482;51.398;7.128;2022-09-01T06:00:14;3.47;;;2.80;;
2944;SDS011;1482;51.398;7.128;2022-09-01T06:02:42;3.73;;;2.53;;
2944;SDS011;1482;51.398;7.128;2022-09-01T06:05:08;3.40;;;2.63;;
2944;SDS011;1482;51.398;7.128;2022-09-01T06:07:34;5.90;;;3.03;;
2944;SDS011;1482;51.398;7.128;2022-09-01T06:10:02;2.70;;;2.50;;
2944;SDS011;1482;51.398;7.128;2022-09-01T06:12:28;4.80;;;2.80;;
2944;SDS011;1482;51.398;7.128;2022-09-01T06:14:54;4.70;;;2.80;;
2944;SDS011;1482;51.398;7.128;2022-09-01T06:17:21;6.23;;;2.73;;
2944;SDS011;1482;51.398;7.128;2022-09-01T06:19:49;6.50;;;3.50;;
2944;SDS011;1482;51.398;7.128;2022-09-01T06:22:23;3.50;;;3.20;;
2944;SDS011;1482;51.398;7.128;2022-09-01T06:24:50;4.43;;;3.70;;
2944;SDS011;1482;51.398;7.128;2022-09-01T06:27:18;5.70;;;3.27;;
2944;SDS011;1482;51.398;7.128;2022-09-01T06:29:45;5.73;;;3.77;;
2944;SDS011;1482;51.398;7.128;2022-09-01T06:32:20;4.17;;;3.20;;
2944;SDS011;1482;51.398;7.128;2022-09-01T06:34:45;4.07;;;2.73;;
2944;SDS011;1482;51.398;7.128;2022-09-01T06:37:15;6.90;;;3.60;;
2944;SDS011;1482;51.398;7.128;2022-09-01T06:39:46;4.30;;;2.97;;
2944;SDS011;1482;51.398;7.128;2022-09-01T06:42:12;4.10;;;2.80;;
2944;SDS011;1482;51.398;7.128;2022-09-01T06:44:39;4.70;;;3.00;;
2944;SDS011;1482;51.398;7.128;2022-09-01T06:47:05;4.87;;;2.73;;
2944;SDS011;1482;51.398;7.128;2022-09-01T06:49:31;7.60;;;2.43;;
2944;SDS011;1482;51.398;7.128;2022-09-01T06:52:02;8.60;;;2.80;;
2944;SDS011;1482;51.398;7.128;2022-09-01T06:54:28;3.80;;;3.50;;
2944;SDS011;1482;51.398;7.128;2022-09-01T06:56:58;4.03;;;2.83;;
2944;SDS011;1482;51.398;7.128;2022-09-01T06:59:27;2.67;;;2.47;;
2944;SDS011;1482;51.398;7.128;2022-09-01T07:01:57;6.23;;;3.63;;
2944;SDS011;1482;51.398;7.128;2022-09-01T07:04:28;4.57;;;4.07;;
2944;SDS011;1482;51.398;7.128;2022-09-01T07:06:55;4.53;;;4.13;;
2944;SDS011;1482;51.398;7.128;2022-09-01T07:09:21;5.07;;;4.60;;
2944;SDS011;1482;51.398;7.128;2022-09-01T07:11:47;6.13;;;3.33;;
2944;SDS011;1482;51.398;7.128;2022-09-01T07:14:14;5.33;;;2.73;;
2944;SDS011;1482;51.398;7.128;2022-09-01T07:16:40;3.73;;;2.80;;
2944;SDS011;1482;51.398;7.128;2022-09-01T07:19:08;3.03;;;2.43;;
2944;SDS011;1482;51.398;7.128;2022-09-01T07:21:39;6.50;;;2.87;;
2944;SDS011;1482;51.398;7.128;2022-09-01T07:24:05;2.40;;;2.20;;
2944;SDS011;1482;51.398;7.128;2022-09-01T07:26:31;3.97;;;2.23;;
2944;SDS011;1482;51.398;7.128;2022-09-01T07:28:59;2.57;;;2.37;;
2944;SDS011;1482;51.398;7.128;2022-09-01T07:31:28;3.70;;;2.57;;
2944;SDS011;1482;51.398;7.128;2022-09-01T07:33:57;6.60;;;3.30;;
2944;SDS011;1482;51.398;7.128;2022-09-01T07:36:24;2.47;;;2.27;;
2944;SDS011;1482;51.398;7.128;2022-09-01T07:38:50;3.73;;;2.47;;
2944;SDS011;1482;51.398;7.128;2022-09-01T07:41:18;3.10;;;2.80;;
2944;SDS011;1482;51.398;7.128;2022-09-01T07:43:45;5.43;;;2.20;;
2944;SDS011;1482;51.398;7.128;2022-09-01T07:46:13;6.37;;;2.53;;
2944;SDS011;1482;51.398;7.128;2022-09-01T07:48:39;5.93;;;2.33;;
2944;SDS011;1482;51.398;7.128;2022-09-01T07:51:06;2.87;;;1.87;;
2944;SDS011;1482;51.398;7.128;2022-09-01T07:53:32;4.50;;;2.60;;
2944;SDS011;1482;51.398;7.128;2022-09-01T07:56:03;2.60;;;2.33;;
2944;SDS011;1482;51.398;7.128;2022-09-01T07:58:31;2.73;;;2.17;;
2944;SDS011;1482;51.398;7.128;2022-09-01T08:00:57;2.30;;;2.10;;
2944;SDS011;1482;51.398;7.128;2022-09-01T08:03:26;3.57;;;2.10;;
2944;SDS011;1482;51.398;7.128;2022-09-01T08:05:53;3.23;;;2.13;;
2944;SDS011;1482;51.398;7.128;2022-09-01T08:08:23;3.40;;;2.43;;
2944;SDS011;1482;51.398;7.128;2022-09-01T08:10:49;2.60;;;2.10;;
2944;SDS011;1482;51.398;7.128;2022-09-01T08:13:15;3.20;;;2.33;;
2944;SDS011;1482;51.398;7.128;2022-09-01T08:15:41;4.60;;;2.20;;
2944;SDS011;1482;51.398;7.128;2022-09-01T08:18:07;2.30;;;2.10;;
2944;SDS011;1482;51.398;7.128;2022-09-01T08:20:33;2.17;;;2.00;;
2944;SDS011;1482;51.398;7.128;2022-09-01T08:23:04;2.67;;;2.10;;
2944;SDS011;1482;51.398;7.128;2022-09-01T08:25:31;3.33;;;1.77;;
2944;SDS011;1482;51.398;7.128;2022-09-01T08:28:00;4.43;;;2.00;;
2944;SDS011;1482;51.398;7.128;2022-09-01T08:30:25;4.87;;;2.53;;
2944;SDS011;1482;51.398;7.128;2022-09-01T08:32:52;2.63;;;2.00;;
2944;SDS011;1482;51.398;7.128;2022-09-01T08:35:17;3.43;;;2.33;;
2944;SDS011;1482;51.398;7.128;2022-09-01T08:37:43;6.83;;;2.20;;
2944;SDS011;1482;51.398;7.128;2022-09-01T08:40:13;4.33;;;2.20;;
2944;SDS011;1482;51.398;7.128;2022-09-01T08:45:32;1.80;;;1.70;;
2944;SDS011;1482;51.398;7.128;2022-09-01T08:48:15;4.17;;;1.60;;
2944;SDS011;1482;51.398;7.128;2022-09-01T08:50:44;3.83;;;1.50;;
2944;SDS011;1482;51.398;7.128;2022-09-01T08:53:27;2.03;;;1.80;;
2944;SDS011;1482;51.398;7.128;2022-09-01T08:55:57;3.27;;;1.90;;
2944;SDS011;1482;51.398;7.128;2022-09-01T08:58:24;2.83;;;1.50;;
2944;SDS011;1482;51.398;7.128;2022-09-01T09:00:55;3.37;;;1.80;;
2944;SDS011;1482;51.398;7.128;2022-09-01T09:08:43;3.20;;;2.10;;
2944;SDS011;1482;51.398;7.128;2022-09-01T09:16:34;2.47;;;1.83;;
2944;SDS011;1482;51.398;7.128;2022-09-01T09:19:07;1.50;;;1.40;;
2944;SDS011;1482;51.398;7.128;2022-09-01T09:21:35;3.03;;;1.77;;
2944;SDS011;1482;51.398;7.128;2022-09-01T09:24:23;4.30;;;1.87;;
2944;SDS011;1482;51.398;7.128;2022-09-01T09:26:56;2.83;;;1.83;;
2944;SDS011;1482;51.398;7.128;2022-09-01T09:29:23;2.10;;;1.70;;
2944;SDS011;1482;51.398;7.128;2022-09-01T09:32:02;2.40;;;1.33;;
2944;SDS011;1482;51.398;7.128;2022-09-01T09:34:31;2.30;;;1.50;;
2944;SDS011;1482;51.398;7.128;2022-09-01T09:37:01;9.83;;;1.90;;
2944;SDS011;1482;51.398;7.128;2022-09-01T09:42:37;2.90;;;1.50;;
2944;SDS011;1482;51.398;7.128;2022-09-01T09:45:05;1.43;;;1.33;;
2944;SDS011;1482;51.398;7.128;2022-09-01T09:47:45;2.70;;;1.63;;
2944;SDS011;1482;51.398;7.128;2022-09-01T09:52:47;4.00;;;2.00;;
2944;SDS011;1482;51.398;7.128;2022-09-01T09:55:35;3.70;;;1.30;;
2944;SDS011;1482;51.398;7.128;2022-09-01T09:58:00;4.90;;;1.70;;
2944;SDS011;1482;51.398;7.128;2022-09-01T10:00:35;3.30;;;1.67;;
2944;SDS011;1482;51.398;7.128;2022-09-01T10:03:02;2.83;;;1.70;;
2944;SDS011;1482;51.398;7.128;2022-09-01T10:07:58;2.10;;;1.63;;
2944;SDS011;1482;51.398;7.128;2022-09-01T10:13:02;2.93;;;1.50;;
2944;SDS011;1482;51.398;7.128;2022-09-01T10:15:31;3.03;;;1.90;;
2944;SDS011;1482;51.398;7.128;2022-09-01T10:17:59;2.33;;;1.80;;
2944;SDS011;1482;51.398;7.128;2022-09-01T10:20:31;4.00;;;2.03;;
2944;SDS011;1482;51.398;7.128;2022-09-01T10:23:01;1.90;;;1.80;;
2944;SDS011;1482;51.398;7.128;2022-09-01T10:25:28;3.27;;;1.83;;
2944;SDS011;1482;51.398;7.128;2022-09-01T10:28:01;2.53;;;1.80;;
2944;SDS011;1482;51.398;7.128;2022-09-01T10:30:50;2.50;;;1.43;;
2944;SDS011;1482;51.398;7.128;2022-09-01T10:33:19;2.13;;;1.70;;
2944;SDS011;1482;51.398;7.128;2022-09-01T10:35:47;1.57;;;1.30;;
2944;SDS011;1482;51.398;7.128;2022-09-01T10:40:45;1.87;;;1.60;;
2944;SDS011;1482;51.398;7.128;2022-09-01T10:48:44;2.00;;;1.57;;
2944;SDS011;1482;51.398;7.128;2022-09-01T10:56:22;2.90;;;2.13;;
2944;SDS011;1482;51.398;7.128;2022-09-01T10:59:08;2.53;;;1.60;;
2944;SDS011;1482;51.398;7.128;2022-09-01T11:04:10;3.60;;;1.90;;
2944;SDS011;1482;51.398;7.128;2022-09-01T11:14:32;2.03;;;1.50;;
2944;SDS011;1482;51.398;7.128;2022-09-01T11:19:57;1.90;;;1.57;;
2944;SDS011;1482;51.398;7.128;2022-09-01T11:22:45;3.30;;;1.80;;
2944;SDS011;1482;51.398;7.128;2022-09-01T11:25:43;2.60;;;1.67;;
2944;SDS011;1482;51.398;7.128;2022-09-01T11:30:42;5.53;;;2.47;;
2944;SDS011;1482;51.398;7.128;2022-09-01T11:39:05;3.10;;;1.70;;
2944;SDS011;1482;51.398;7.128;2022-09-01T11:44:34;4.47;;;1.83;;
2944;SDS011;1482;51.398;7.128;2022-09-01T11:47:24;6.87;;;2.10;;
2944;SDS011;1482;51.398;7.128;2022-09-01T11:49:59;4.40;;;1.90;;
2944;SDS011;1482;51.398;7.128;2022-09-01T11:52:28;6.03;;;2.07;;
2944;SDS011;1482;51.398;7.128;2022-09-01T11:55:00;3.60;;;1.63;;
2944;SDS011;1482;51.398;7.128;2022-09-01T11:57:27;2.60;;;1.87;;
2944;SDS011;1482;51.398;7.128;2022-09-01T12:00:08;2.50;;;1.73;;
2944;SDS011;1482;51.398;7.128;2022-09-01T12:02:40;2.47;;;2.00;;
2944;SDS011;1482;51.398;7.128;2022-09-01T12:05:34;8.73;;;2.20;;
2944;SDS011;1482;51.398;7.128;2022-09-01T12:08:04;2.37;;;2.17;;
2944;SDS011;1482;51.398;7.128;2022-09-01T12:10:38;1.60;;;1.50;;
2944;SDS011;1482;51.398;7.128;2022-09-01T12:13:07;2.83;;;1.80;;
2944;SDS011;1482;51.398;7.128;2022-09-01T12:15:35;2.27;;;1.50;;
2944;SDS011;1482;51.398;7.128;2022-09-01T12:18:10;6.30;;;2.10;;
2944;SDS011;1482;51.398;7.128;2022-09-01T12:20:45;3.33;;;1.93;;
2944;SDS011;1482;51.398;7.128;2022-09-01T12:23:30;4.80;;;1.97;;
2944;SDS011;1482;51.398;7.128;2022-09-01T12:26:06;4.17;;;2.00;;
2944;SDS011;1482;51.398;7.128;2022-09-01T12:28:34;3.60;;;2.03;;
2944;SDS011;1482;51.398;7.128;2022-09-01T12:31:04;2.60;;;1.60;;
2944;SDS011;1482;51.398;7.128;2022-09-01T12:33:31;1.50;;;1.40;;
2944;SDS011;1482;51.398;7.128;2022-09-01T12:36:20;2.30;;;2.10;;
2944;SDS011;1482;51.398;7.128;2022-09-01T12:38:48;2.43;;;2.23;;
2944;SDS011;1482;51.398;7.128;2022-09-01T12:41:31;1.97;;;1.80;;
2944;SDS011;1482;51.398;7.128;2022-09-01T12:47:11;3.80;;;1.87;;
2944;SDS011;1482;51.398;7.128;2022-09-01T12:49:42;1.87;;;1.73;;
2944;SDS011;1482;51.398;7.128;2022-09-01T12:52:17;2.60;;;2.10;;
2944;SDS011;1482;51.398;7.128;2022-09-01T12:54:52;2.27;;;2.17;;
2944;SDS011;1482;51.398;7.128;2022-09-01T12:57:29;3.83;;;1.63;;
2944;SDS011;1482;51.398;7.128;2022-09-01T13:08:01;2.60;;;2.33;;
2944;SDS011;1482;51.398;7.128;2022-09-01T13:10:31;2.87;;;1.93;;
2944;SDS011;1482;51.398;7.128;2022-09-01T13:13:02;2.50;;;2.03;;
2944;SDS011;1482;51.398;7.128;2022-09-01T13:15:28;2.93;;;1.80;;
2944;SDS011;1482;51.398;7.128;2022-09-01T13:17:55;2.63;;;2.00;;
2944;SDS011;1482;51.398;7.128;2022-09-01T13:20:20;4.30;;;2.13;;
2944;SDS011;1482;51.398;7.128;2022-09-01T13:22:46;2.10;;;1.80;;
2944;SDS011;1482;51.398;7.128;2022-09-01T13:25:13;2.53;;;2.00;;
2944;SDS011;1482;51.398;7.128;2022-09-01T13:27:43;2.20;;;1.77;;
2944;SDS011;1482;51.398;7.128;2022-09-01T13:30:11;4.30;;;2.00;;
2944;SDS011;1482;51.398;7.128;2022-09-01T13:32:43;2.57;;;1.70;;
2944;SDS011;1482;51.398;7.128;2022-09-01T13:35:10;3.60;;;1.70;;
2944;SDS011;1482;51.398;7.128;2022-09-01T13:37:39;6.00;;;1.90;;
2944;SDS011;1482;51.398;7.128;2022-09-01T13:40:05;3.43;;;1.93;;
2944;SDS011;1482;51.398;7.128;2022-09-01T13:42:32;2.13;;;1.73;;
2944;SDS011;1482;51.398;7.128;2022-09-01T13:44:58;1.90;;;1.60;;
2944;SDS011;1482;51.398;7.128;2022-09-01T13:47:25;2.93;;;1.60;;
2944;SDS011;1482;51.398;7.128;2022-09-01T13:49:50;2.00;;;1.60;;
2944;SDS011;1482;51.398;7.128;2022-09-01T13:52:16;1.70;;;1.30;;
2944;SDS011;1482;51.398;7.128;2022-09-01T13:54:43;12.63;;;2.07;;
2944;SDS011;1482;51.398;7.128;2022-09-01T13:57:09;4.27;;;1.97;;
2944;SDS011;1482;51.398;7.128;2022-09-01T13:59:35;1.60;;;1.50;;
2944;SDS011;1482;51.398;7.128;2022-09-01T14:02:02;2.47;;;1.97;;
2944;SDS011;1482;51.398;7.128;2022-09-01T14:04:28;1.73;;;1.63;;
2944;SDS011;1482;51.398;7.128;2022-09-01T14:06:54;1.87;;;1.70;;
2944;SDS011;1482;51.398;7.128;2022-09-01T14:09:19;2.00;;;1.90;;
2944;SDS011;1482;51.398;7.128;2022-09-01T14:11:45;1.70;;;1.60;;
2944;SDS011;1482;51.398;7.128;2022-09-01T14:14:11;3.20;;;1.33;;
2944;SDS011;1482;51.398;7.128;2022-09-01T14:16:36;2.80;;;1.43;;
2944;SDS011;1482;51.398;7.128;2022-09-01T14:19:02;5.23;;;2.20;;
2944;SDS011;1482;51.398;7.128;2022-09-01T14:21:28;1.80;;;1.47;;
2944;SDS011;1482;51.398;7.128;2022-09-01T14:23:54;3.27;;;1.80;;
2944;SDS011;1482;51.398;7.128;2022-09-01T14:26:19;3.20;;;2.90;;
2944;SDS011;1482;51.398;7.128;2022-09-01T14:28:45;2.37;;;1.87;;
2944;SDS011;1482;51.398;7.128;2022-09-01T14:31:13;3.07;;;2.03;;
2944;SDS011;1482;51.398;7.128;2022-09-01T14:33:42;3.50;;;1.80;;
2944;SDS011;1482;51.398;7.128;2022-09-01T14:36:14;4.13;;;2.50;;
2944;SDS011;1482;51.398;7.128;2022-09-01T14:38:45;4.10;;;1.43;;
2944;SDS011;1482;51.398;7.128;2022-09-01T14:41:13;2.73;;;1.70;;
2944;SDS011;1482;51.398;7.128;2022-09-01T14:43:39;3.10;;;1.70;;
2944;SDS011;1482;51.398;7.128;2022-09-01T14:46:08;4.80;;;1.90;;
2944;SDS011;1482;51.398;7.128;2022-09-01T14:48:35;5.23;;;2.87;;
2944;SDS011;1482;51.398;7.128;2022-09-01T14:51:02;1.43;;;1.33;;
2944;SDS011;1482;51.398;7.128;2022-09-01T14:53:28;4.27;;;1.70;;
2944;SDS011;1482;51.398;7.128;2022-09-01T14:55:55;7.53;;;2.10;;
2944;SDS011;1482;51.398;7.128;2022-09-01T14:58:22;2.37;;;1.87;;
2944;SDS011;1482;51.398;7.128;2022-09-01T15:00:50;2.17;;;1.50;;
2944;SDS011;1482;51.398;7.128;2022-09-01T15:03:17;2.67;;;2.13;;
2944;SDS011;1482;51.398;7.128;2022-09-01T15:05:42;3.03;;;1.87;;
2944;SDS011;1482;51.398;7.128;2022-09-01T15:08:08;1.80;;;1.40;;
2944;SDS011;1482;51.398;7.128;2022-09-01T15:10:34;3.93;;;1.93;;
2944;SDS011;1482;51.398;7.128;2022-09-01T15:13:00;4.53;;;1.83;;
2944;SDS011;1482;51.398;7.128;2022-09-01T15:15:27;2.50;;;2.00;;
2944;SDS011;1482;51.398;7.128;2022-09-01T15:17:54;2.77;;;1.43;;
2944;SDS011;1482;51.398;7.128;2022-09-01T15:20:20;3.47;;;1.80;;
2944;SDS011;1482;51.398;7.128;2022-09-01T15:23:05;13.20;;;2.50;;
2944;SDS011;1482;51.398;7.128;2022-09-01T15:25:31;2.07;;;1.83;;
2944;SDS011;1482;51.398;7.128;2022-09-01T15:27:57;3.20;;;1.67;;
2944;SDS011;1482;51.398;7.128;2022-09-01T15:30:22;2.93;;;1.57;;
2944;SDS011;1482;51.398;7.128;2022-09-01T15:32:49;2.63;;;1.80;;
2944;SDS011;1482;51.398;7.128;2022-09-01T15:35:16;1.70;;;1.60;;
2944;SDS011;1482;51.398;7.128;2022-09-01T15:37:44;1.70;;;1.60;;
2944;SDS011;1482;51.398;7.128;2022-09-01T15:40:10;2.13;;;1.60;;
2944;SDS011;1482;51.398;7.128;2022-09-01T15:42:36;3.90;;;1.63;;
2944;SDS011;1482;51.398;7.128;2022-09-01T15:45:07;1.77;;;1.67;;
2944;SDS011;1482;51.398;7.128;2022-09-01T15:47:35;2.07;;;1.50;;
2944;SDS011;1482;51.398;7.128;2022-09-01T15:50:05;2.13;;;1.87;;
2944;SDS011;1482;51.398;7.128;2022-09-01T15:52:32;2.57;;;1.73;;
2944;SDS011;1482;51.398;7.128;2022-09-01T15:54:58;2.70;;;1.70;;
2944;SDS011;1482;51.398;7.128;2022-09-01T15:57:24;3.33;;;1.50;;
2944;SDS011;1482;51.398;7.128;2022-09-01T15:59:51;1.43;;;1.33;;
2944;SDS011;1482;51.398;7.128;2022-09-01T16:02:16;2.30;;;1.70;;
2944;SDS011;1482;51.398;7.128;2022-09-01T16:04:45;2.70;;;1.70;;
2944;SDS011;1482;51.398;7.128;2022-09-01T16:07:11;1.67;;;1.50;;
2944;SDS011;1482;51.398;7.128;2022-09-01T16:09:37;3.47;;;1.50;;
2944;SDS011;1482;51.398;7.128;2022-09-01T16:12:03;2.97;;;1.63;;
2944;SDS011;1482;51.398;7.128;2022-09-01T16:14:30;2.10;;;1.80;;
2944;SDS011;1482;51.398;7.128;2022-09-01T16:17:01;4.60;;;1.77;;
2944;SDS011;1482;51.398;7.128;2022-09-01T16:24:47;3.67;;;1.30;;
2944;SDS011;1482;51.398;7.128;2022-09-01T16:27:20;1.83;;;1.60;;
2944;SDS011;1482;51.398;7.128;2022-09-01T16:29:50;2.03;;;1.57;;
2944;SDS011;1482;51.398;7.128;2022-09-01T16:32:19;2.37;;;1.83;;
2944;SDS011;1482;51.398;7.128;2022-09-01T16:34:47;2.20;;;2.00;;
2944;SDS011;1482;51.398;7.128;2022-09-01T16:37:17;2.80;;;1.30;;
2944;SDS011;1482;51.398;7.128;2022-09-01T16:40:09;1.63;;;1.53;;
2944;SDS011;1482;51.398;7.128;2022-09-01T16:42:54;2.37;;;2.17;;
2944;SDS011;1482;51.398;7.128;2022-09-01T16:56:06;2.00;;;1.43;;
2944;SDS011;1482;51.398;7.128;2022-09-01T17:02:05;3.23;;;1.47;;
2944;SDS011;1482;51.398;7.128;2022-09-01T17:07:22;1.63;;;1.50;;
2944;SDS011;1482;51.398;7.128;2022-09-01T17:10:11;1.87;;;1.47;;
2944;SDS011;1482;51.398;7.128;2022-09-01T17:12:41;2.50;;;1.47;;